sensor_id;sensor_type;location;lat;lon;timestamp;P1;durP1;ratioP1;P2;durP2;ratioP2
6878;SDS011;3478;51.462;7.338;2023-06-04T00:02:52;3.23;;;1.27;;
6878;SDS011;3478;51.462;7.338;2023-06-04T00:07:53;1.67;;;1.33;;
6878;SDS011;3478;51.462;7.338;2023-06-04T00:12:57;1.27;;;0.80;;
6878;SDS011;3478;51.462;7.338;2023-06-04T00:17:58;1.73;;;1.50;;
6878;SDS011;3478;51.462;7.338;2023-06-04T00:23:00;1.27;;;1.00;;
6878;SDS011;3478;51.462;7.338;2023-06-04T00:28:04;1.90;;;1.03;;
6878;SDS011;3478;51.462;7.338;2023-06-04T00:33:05;6.20;;;1.87;;
6878;SDS011;3478;51.462;7.338;2023-06-04T00:38:07;2.37;;;1.60;;
6878;SDS011;3478;51.462;7.338;2023-06-04T00:43:11;1.80;;;1.10;;
6878;SDS011;3478;51.462;7.338;2023-06-04T00:48:13;2.37;;;1.80;;
6878;SDS011;3478;51.462;7.338;2023-06-04T00:53:15;1.60;;;1.10;;
6878;SDS011;3478;51.462;7.338;2023-06-04T00:58:19;5.13;;;1.97;;
6878;SDS011;3478;51.462;7.338;2023-06-04T01:03:21;1.87;;;1.67;;
6878;SDS011;3478;51.462;7.338;2023-06-04T01:08:29;1.20;;;0.97;;
6878;SDS011;3478;51.462;7.338;2023-06-04T01:13:33;4.10;;;1.60;;
6878;SDS011;3478;51.462;7.338;2023-06-04T01:18:35;2.43;;;1.63;;
6878;SDS011;3478;51.462;7.338;2023-06-04T01:23:43;1.63;;;1.30;;
6878;SDS011;3478;51.462;7.338;2023-06-04T01:28:49;1.77;;;1.40;;
6878;SDS011;3478;51.462;7.338;2023-06-04T01:33:52;4.77;;;1.90;;
6878;SDS011;3478;51.462;7.338;2023-06-04T01:38:54;1.33;;;1.23;;
6878;SDS011;3478;51.462;7.338;2023-06-04T01:43:57;1.50;;;1.20;;
6878;SDS011;3478;51.462;7.338;2023-06-04T01:48:59;1.60;;;1.27;;
6878;SDS011;3478;51.462;7.338;2023-06-04T01:54:01;1.30;;;1.10;;
6878;SDS011;3478;51.462;7.338;2023-06-04T01:59:04;2.10;;;1.30;;
6878;SDS011;3478;51.462;7.338;2023-06-04T02:04:07;2.07;;;1.80;;
6878;SDS011;3478;51.462;7.338;2023-06-04T02:09:09;1.60;;;1.10;;
6878;SDS011;3478;51.462;7.338;2023-06-04T02:14:12;2.93;;;1.00;;
6878;SDS011;3478;51.462;7.338;2023-06-04T02:19:14;2.60;;;1.20;;
6878;SDS011;3478;51.462;7.338;2023-06-04T02:24:18;1.43;;;1.33;;
6878;SDS011;3478;51.462;7.338;2023-06-04T02:29:21;1.33;;;1.13;;
6878;SDS011;3478;51.462;7.338;2023-06-04T02:34:23;2.50;;;1.13;;
6878;SDS011;3478;51.462;7.338;2023-06-04T02:39:26;2.13;;;1.23;;
6878;SDS011;3478;51.462;7.338;2023-06-04T02:44:29;4.07;;;1.53;;
6878;SDS011;3478;51.462;7.338;2023-06-04T02:49:31;1.00;;;0.90;;
6878;SDS011;3478;51.462;7.338;2023-06-04T02:54:33;2.73;;;1.23;;
6878;SDS011;3478;51.462;7.338;2023-06-04T02:59:36;1.27;;;1.17;;
6878;SDS011;3478;51.462;7.338;2023-06-04T03:04:38;2.07;;;1.43;;
6878;SDS011;3478;51.462;7.338;2023-06-04T03:09:40;2.00;;;1.40;;
6878;SDS011;3478;51.462;7.338;2023-06-04T03:14:43;5.40;;;1.67;;
6878;SDS011;3478;51.462;7.338;2023-06-04T03:19:45;2.03;;;1.60;;
6878;SDS011;3478;51.462;7.338;2023-06-04T03:24:48;3.10;;;1.03;;
6878;SDS011;3478;51.462;7.338;2023-06-04T03:29:51;1.80;;;1.10;;
6878;SDS011;3478;51.462;7.338;2023-06-04T03:34:53;1.97;;;1.50;;
6878;SDS011;3478;51.462;7.338;2023-06-04T03:39:54;1.23;;;1.13;;
6878;SDS011;3478;51.462;7.338;2023-06-04T03:44:58;2.27;;;1.20;;
6878;SDS011;3478;51.462;7.338;2023-06-04T03:49:59;1.70;;;1.60;;
6878;SDS011;3478;51.462;7.338;2023-06-04T03:55:01;1.40;;;1.27;;
6878;SDS011;3478;51.462;7.338;2023-06-04T04:00:06;2.53;;;1.50;;
6878;SDS011;3478;51.462;7.338;2023-06-04T04:05:10;1.60;;;1.50;;
6878;SDS011;3478;51.462;7.338;2023-06-04T04:10:12;2.30;;;1.57;;
6878;SDS011;3478;51.462;7.338;2023-06-04T04:15:15;2.90;;;1.70;;
6878;SDS011;3478;51.462;7.338;2023-06-04T04:20:17;4.07;;;1.63;;
6878;SDS011;3478;51.462;7.338;2023-06-04T04:25:19;2.23;;;1.60;;
6878;SDS011;3478;51.462;7.338;2023-06-04T04:30:22;2.87;;;1.97;;
6878;SDS011;3478;51.462;7.338;2023-06-04T04:35:24;2.70;;;1.90;;
6878;SDS011;3478;51.462;7.338;2023-06-04T04:40:26;2.37;;;1.70;;
6878;SDS011;3478;51.462;7.338;2023-06-04T04:45:29;2.10;;;1.60;;
6878;SDS011;3478;51.462;7.338;2023-06-04T04:50:31;3.60;;;1.70;;
6878;SDS011;3478;51.462;7.338;2023-06-04T04:55:33;1.47;;;1.33;;
6878;SDS011;3478;51.462;7.338;2023-06-04T05:00:36;2.50;;;2.30;;
6878;SDS011;3478;51.462;7.338;2023-06-04T05:05:38;2.17;;;1.70;;
6878;SDS011;3478;51.462;7.338;2023-06-04T05:10:40;3.27;;;1.70;;
6878;SDS011;3478;51.462;7.338;2023-06-04T05:15:43;2.47;;;2.27;;
6878;SDS011;3478;51.462;7.338;2023-06-04T05:20:47;2.87;;;2.53;;
6878;SDS011;3478;51.462;7.338;2023-06-04T05:25:49;3.90;;;3.10;;
6878;SDS011;3478;51.462;7.338;2023-06-04T05:30:53;3.53;;;2.90;;
6878;SDS011;3478;51.462;7.338;2023-06-04T05:35:58;4.40;;;2.57;;
6878;SDS011;3478;51.462;7.338;2023-06-04T05:41:00;4.00;;;3.70;;
6878;SDS011;3478;51.462;7.338;2023-06-04T05:46:03;4.77;;;2.97;;
6878;SDS011;3478;51.462;7.338;2023-06-04T05:51:07;3.50;;;2.77;;
6878;SDS011;3478;51.462;7.338;2023-06-04T05:56:09;2.97;;;2.67;;
6878;SDS011;3478;51.462;7.338;2023-06-04T06:01:12;5.10;;;3.13;;
6878;SDS011;3478;51.462;7.338;2023-06-04T06:06:15;2.77;;;2.57;;
6878;SDS011;3478;51.462;7.338;2023-06-04T06:11:18;3.83;;;2.57;;
6878;SDS011;3478;51.462;7.338;2023-06-04T06:16:22;2.83;;;2.63;;
6878;SDS011;3478;51.462;7.338;2023-06-04T06:21:24;4.70;;;2.00;;
6878;SDS011;3478;51.462;7.338;2023-06-04T06:26:27;2.67;;;2.37;;
6878;SDS011;3478;51.462;7.338;2023-06-04T06:31:30;2.37;;;2.03;;
6878;SDS011;3478;51.462;7.338;2023-06-04T06:36:32;2.40;;;2.20;;
6878;SDS011;3478;51.462;7.338;2023-06-04T06:41:34;3.40;;;2.63;;
6878;SDS011;3478;51.462;7.338;2023-06-04T06:46:37;2.50;;;1.93;;
6878;SDS011;3478;51.462;7.338;2023-06-04T06:51:39;1.83;;;1.57;;
6878;SDS011;3478;51.462;7.338;2023-06-04T06:56:41;1.37;;;1.27;;
6878;SDS011;3478;51.462;7.338;2023-06-04T07:01:44;4.30;;;1.67;;
6878;SDS011;3478;51.462;7.338;2023-06-04T07:06:47;2.87;;;1.90;;
6878;SDS011;3478;51.462;7.338;2023-06-04T07:11:49;1.93;;;1.40;;
6878;SDS011;3478;51.462;7.338;2023-06-04T07:16:52;2.90;;;1.27;;
6878;SDS011;3478;51.462;7.338;2023-06-04T07:21:54;1.33;;;1.23;;
6878;SDS011;3478;51.462;7.338;2023-06-04T07:26:56;1.93;;;0.90;;
6878;SDS011;3478;51.462;7.338;2023-06-04T07:31:59;1.27;;;1.00;;
6878;SDS011;3478;51.462;7.338;2023-06-04T07:37:01;1.70;;;0.87;;
6878;SDS011;3478;51.462;7.338;2023-06-04T07:42:04;1.87;;;0.93;;
6878;SDS011;3478;51.462;7.338;2023-06-04T07:47:08;1.00;;;0.90;;
6878;SDS011;3478;51.462;7.338;2023-06-04T07:52:10;2.30;;;1.10;;
6878;SDS011;3478;51.462;7.338;2023-06-04T07:57:12;1.80;;;1.50;;
6878;SDS011;3478;51.462;7.338;2023-06-04T08:02:15;0.93;;;0.73;;
6878;SDS011;3478;51.462;7.338;2023-06-04T08:07:17;1.70;;;1.20;;
6878;SDS011;3478;51.462;7.338;2023-06-04T08:12:19;1.50;;;1.27;;
6878;SDS011;3478;51.462;7.338;2023-06-04T08:17:22;3.30;;;1.10;;
6878;SDS011;3478;51.462;7.338;2023-06-04T08:22:24;2.87;;;1.07;;
6878;SDS011;3478;51.462;7.338;2023-06-04T08:27:27;1.40;;;1.30;;
6878;SDS011;3478;51.462;7.338;2023-06-04T08:32:30;2.23;;;2.03;;
6878;SDS011;3478;51.462;7.338;2023-06-04T08:37:32;2.43;;;1.87;;
6878;SDS011;3478;51.462;7.338;2023-06-04T08:42:36;1.70;;;1.37;;
6878;SDS011;3478;51.462;7.338;2023-06-04T08:47:43;1.63;;;1.53;;
6878;SDS011;3478;51.462;7.338;2023-06-04T08:52:51;2.00;;;1.67;;
6878;SDS011;3478;51.462;7.338;2023-06-04T08:57:54;2.80;;;2.60;;
6878;SDS011;3478;51.462;7.338;2023-06-04T09:02:57;2.17;;;2.07;;
6878;SDS011;3478;51.462;7.338;2023-06-04T09:08:03;6.90;;;2.20;;
6878;SDS011;3478;51.462;7.338;2023-06-04T09:13:08;1.87;;;1.77;;
6878;SDS011;3478;51.462;7.338;2023-06-04T09:18:12;2.80;;;2.60;;
6878;SDS011;3478;51.462;7.338;2023-06-04T09:23:14;2.57;;;1.93;;
6878;SDS011;3478;51.462;7.338;2023-06-04T09:28:17;3.33;;;2.27;;
6878;SDS011;3478;51.462;7.338;2023-06-04T09:33:20;3.47;;;3.27;;
6878;SDS011;3478;51.462;7.338;2023-06-04T09:38:23;4.43;;;2.03;;
6878;SDS011;3478;51.462;7.338;2023-06-04T09:43:33;3.13;;;2.50;;
6878;SDS011;3478;51.462;7.338;2023-06-04T09:48:36;2.73;;;2.53;;
6878;SDS011;3478;51.462;7.338;2023-06-04T09:53:39;2.60;;;2.47;;
6878;SDS011;3478;51.462;7.338;2023-06-04T09:58:41;1.30;;;1.20;;
6878;SDS011;3478;51.462;7.338;2023-06-04T10:03:46;3.23;;;1.70;;
6878;SDS011;3478;51.462;7.338;2023-06-04T10:08:49;2.43;;;1.60;;
6878;SDS011;3478;51.462;7.338;2023-06-04T10:13:53;1.70;;;1.60;;
6878;SDS011;3478;51.462;7.338;2023-06-04T10:18:59;1.47;;;0.70;;
6878;SDS011;3478;51.462;7.338;2023-06-04T10:24:02;3.27;;;0.97;;
6878;SDS011;3478;51.462;7.338;2023-06-04T10:29:04;1.50;;;1.40;;
6878;SDS011;3478;51.462;7.338;2023-06-04T10:34:08;1.53;;;0.87;;
6878;SDS011;3478;51.462;7.338;2023-06-04T10:39:10;1.90;;;1.20;;
6878;SDS011;3478;51.462;7.338;2023-06-04T10:44:12;2.70;;;1.20;;
6878;SDS011;3478;51.462;7.338;2023-06-04T10:49:25;3.97;;;1.97;;
6878;SDS011;3478;51.462;7.338;2023-06-04T10:54:28;2.47;;;1.17;;
6878;SDS011;3478;51.462;7.338;2023-06-04T10:59:30;2.40;;;1.23;;
6878;SDS011;3478;51.462;7.338;2023-06-04T11:04:33;1.80;;;1.10;;
6878;SDS011;3478;51.462;7.338;2023-06-04T11:09:35;1.77;;;1.10;;
6878;SDS011;3478;51.462;7.338;2023-06-04T11:14:37;1.20;;;1.00;;
6878;SDS011;3478;51.462;7.338;2023-06-04T11:19:41;1.00;;;0.80;;
6878;SDS011;3478;51.462;7.338;2023-06-04T11:24:43;1.13;;;0.90;;
6878;SDS011;3478;51.462;7.338;2023-06-04T11:29:48;1.70;;;0.83;;
6878;SDS011;3478;51.462;7.338;2023-06-04T11:35:02;2.00;;;0.77;;
6878;SDS011;3478;51.462;7.338;2023-06-04T11:40:15;4.80;;;1.00;;
6878;SDS011;3478;51.462;7.338;2023-06-04T11:45:18;1.50;;;1.33;;
6878;SDS011;3478;51.462;7.338;2023-06-04T11:50:26;2.87;;;0.80;;
6878;SDS011;3478;51.462;7.338;2023-06-04T11:55:28;2.27;;;0.60;;
6878;SDS011;3478;51.462;7.338;2023-06-04T12:00:30;1.17;;;0.90;;
6878;SDS011;3478;51.462;7.338;2023-06-04T12:05:34;1.20;;;0.93;;
6878;SDS011;3478;51.462;7.338;2023-06-04T12:10:36;0.87;;;0.80;;
6878;SDS011;3478;51.462;7.338;2023-06-04T12:15:39;1.60;;;1.20;;
6878;SDS011;3478;51.462;7.338;2023-06-04T12:20:43;1.50;;;0.70;;
6878;SDS011;3478;51.462;7.338;2023-06-04T12:25:49;1.00;;;0.80;;
6878;SDS011;3478;51.462;7.338;2023-06-04T12:30:51;1.20;;;0.73;;
6878;SDS011;3478;51.462;7.338;2023-06-04T12:35:56;2.80;;;0.80;;
6878;SDS011;3478;51.462;7.338;2023-06-04T12:40:58;3.77;;;0.60;;
6878;SDS011;3478;51.462;7.338;2023-06-04T12:46:00;2.87;;;1.20;;
6878;SDS011;3478;51.462;7.338;2023-06-04T12:51:03;0.80;;;0.80;;
6878;SDS011;3478;51.462;7.338;2023-06-04T12:56:05;0.90;;;0.70;;
6878;SDS011;3478;51.462;7.338;2023-06-04T13:01:08;4.30;;;0.60;;
6878;SDS011;3478;51.462;7.338;2023-06-04T13:06:11;1.30;;;0.97;;
6878;SDS011;3478;51.462;7.338;2023-06-04T13:11:13;0.90;;;0.60;;
6878;SDS011;3478;51.462;7.338;2023-06-04T13:16:15;1.43;;;0.90;;
6878;SDS011;3478;51.462;7.338;2023-06-04T13:21:18;0.80;;;0.50;;
6878;SDS011;3478;51.462;7.338;2023-06-04T13:26:20;1.20;;;0.70;;
6878;SDS011;3478;51.462;7.338;2023-06-04T13:31:23;1.30;;;0.70;;
6878;SDS011;3478;51.462;7.338;2023-06-04T13:36:26;1.00;;;0.60;;
6878;SDS011;3478;51.462;7.338;2023-06-04T13:41:29;1.43;;;0.50;;
6878;SDS011;3478;51.462;7.338;2023-06-04T13:46:30;1.10;;;0.60;;
6878;SDS011;3478;51.462;7.338;2023-06-04T13:51:34;0.97;;;0.70;;
6878;SDS011;3478;51.462;7.338;2023-06-04T13:56:36;1.23;;;0.60;;
6878;SDS011;3478;51.462;7.338;2023-06-04T14:01:38;0.80;;;0.50;;
6878;SDS011;3478;51.462;7.338;2023-06-04T14:06:41;4.40;;;0.60;;
6878;SDS011;3478;51.462;7.338;2023-06-04T14:11:43;1.17;;;0.97;;
6878;SDS011;3478;51.462;7.338;2023-06-04T14:16:49;1.70;;;1.00;;
6878;SDS011;3478;51.462;7.338;2023-06-04T14:21:52;1.00;;;0.60;;
6878;SDS011;3478;51.462;7.338;2023-06-04T14:26:54;1.80;;;0.97;;
6878;SDS011;3478;51.462;7.338;2023-06-04T14:31:56;2.17;;;0.90;;
6878;SDS011;3478;51.462;7.338;2023-06-04T14:37:00;1.00;;;0.90;;
6878;SDS011;3478;51.462;7.338;2023-06-04T14:42:02;1.00;;;0.90;;
6878;SDS011;3478;51.462;7.338;2023-06-04T14:47:04;1.30;;;0.80;;
6878;SDS011;3478;51.462;7.338;2023-06-04T14:52:08;1.40;;;0.70;;
6878;SDS011;3478;51.462;7.338;2023-06-04T14:57:10;2.07;;;1.20;;
6878;SDS011;3478;51.462;7.338;2023-06-04T15:02:13;1.00;;;0.70;;
6878;SDS011;3478;51.462;7.338;2023-06-04T15:07:21;1.90;;;1.27;;
6878;SDS011;3478;51.462;7.338;2023-06-04T15:12:22;1.97;;;1.30;;
6878;SDS011;3478;51.462;7.338;2023-06-04T15:17:24;1.40;;;1.20;;
6878;SDS011;3478;51.462;7.338;2023-06-04T15:22:27;2.80;;;0.90;;
6878;SDS011;3478;51.462;7.338;2023-06-04T15:27:29;1.50;;;0.90;;
6878;SDS011;3478;51.462;7.338;2023-06-04T15:32:31;1.77;;;1.00;;
6878;SDS011;3478;51.462;7.338;2023-06-04T15:37:35;3.43;;;1.33;;
6878;SDS011;3478;51.462;7.338;2023-06-04T15:42:37;2.00;;;1.00;;
6878;SDS011;3478;51.462;7.338;2023-06-04T15:47:39;1.63;;;1.40;;
6878;SDS011;3478;51.462;7.338;2023-06-04T15:52:42;1.40;;;0.93;;
6878;SDS011;3478;51.462;7.338;2023-06-04T15:57:44;1.70;;;1.00;;
6878;SDS011;3478;51.462;7.338;2023-06-04T16:02:45;1.30;;;1.03;;
6878;SDS011;3478;51.462;7.338;2023-06-04T16:07:49;6.27;;;1.10;;
6878;SDS011;3478;51.462;7.338;2023-06-04T16:12:50;5.30;;;1.47;;
6878;SDS011;3478;51.462;7.338;2023-06-04T16:17:52;3.40;;;0.90;;
6878;SDS011;3478;51.462;7.338;2023-06-04T16:22:57;1.27;;;0.87;;
6878;SDS011;3478;51.462;7.338;2023-06-04T16:28:00;2.03;;;1.00;;
6878;SDS011;3478;51.462;7.338;2023-06-04T16:33:01;1.90;;;1.30;;
6878;SDS011;3478;51.462;7.338;2023-06-04T16:38:05;3.43;;;1.03;;
6878;SDS011;3478;51.462;7.338;2023-06-04T16:43:07;0.90;;;0.80;;
6878;SDS011;3478;51.462;7.338;2023-06-04T16:48:09;3.53;;;0.90;;
6878;SDS011;3478;51.462;7.338;2023-06-04T16:53:12;3.00;;;1.60;;
6878;SDS011;3478;51.462;7.338;2023-06-04T16:58:13;1.10;;;1.00;;
6878;SDS011;3478;51.462;7.338;2023-06-04T17:03:15;2.63;;;0.97;;
6878;SDS011;3478;51.462;7.338;2023-06-04T17:08:19;5.27;;;1.33;;
6878;SDS011;3478;51.462;7.338;2023-06-04T17:13:21;4.90;;;0.70;;
6878;SDS011;3478;51.462;7.338;2023-06-04T17:18:22;2.63;;;1.00;;
6878;SDS011;3478;51.462;7.338;2023-06-04T17:23:26;1.20;;;0.87;;
6878;SDS011;3478;51.462;7.338;2023-06-04T17:28:28;1.97;;;0.70;;
6878;SDS011;3478;51.462;7.338;2023-06-04T17:33:29;2.40;;;0.83;;
6878;SDS011;3478;51.462;7.338;2023-06-04T17:38:33;1.20;;;0.70;;
6878;SDS011;3478;51.462;7.338;2023-06-04T17:43:34;1.10;;;0.77;;
6878;SDS011;3478;51.462;7.338;2023-06-04T17:48:39;1.97;;;0.97;;
6878;SDS011;3478;51.462;7.338;2023-06-04T17:53:42;1.83;;;0.77;;
6878;SDS011;3478;51.462;7.338;2023-06-04T17:58:44;0.90;;;0.70;;
6878;SDS011;3478;51.462;7.338;2023-06-04T18:03:46;11.70;;;0.87;;
6878;SDS011;3478;51.462;7.338;2023-06-04T18:08:51;1.23;;;0.93;;
6878;SDS011;3478;51.462;7.338;2023-06-04T18:13:53;1.13;;;0.83;;
6878;SDS011;3478;51.462;7.338;2023-06-04T18:18:54;1.10;;;1.00;;
6878;SDS011;3478;51.462;7.338;2023-06-04T18:23:58;0.93;;;0.70;;
6878;SDS011;3478;51.462;7.338;2023-06-04T18:28:59;1.10;;;0.67;;
6878;SDS011;3478;51.462;7.338;2023-06-04T18:34:02;1.20;;;0.90;;
6878;SDS011;3478;51.462;7.338;2023-06-04T18:39:07;4.40;;;0.80;;
6878;SDS011;3478;51.462;7.338;2023-06-04T18:44:08;1.23;;;0.83;;
6878;SDS011;3478;51.462;7.338;2023-06-04T18:49:10;2.47;;;0.70;;
6878;SDS011;3478;51.462;7.338;2023-06-04T18:54:13;1.20;;;0.90;;
6878;SDS011;3478;51.462;7.338;2023-06-04T18:59:16;1.63;;;0.87;;
6878;SDS011;3478;51.462;7.338;2023-06-04T19:04:18;2.40;;;0.40;;
6878;SDS011;3478;51.462;7.338;2023-06-04T19:09:21;0.83;;;0.57;;
6878;SDS011;3478;51.462;7.338;2023-06-04T19:14:23;2.00;;;0.80;;
6878;SDS011;3478;51.462;7.338;2023-06-04T19:19:25;2.70;;;0.60;;
6878;SDS011;3478;51.462;7.338;2023-06-04T19:24:28;0.90;;;0.60;;
6878;SDS011;3478;51.462;7.338;2023-06-04T19:29:30;1.27;;;0.93;;
6878;SDS011;3478;51.462;7.338;2023-06-04T19:34:32;1.60;;;0.60;;
6878;SDS011;3478;51.462;7.338;2023-06-04T19:39:35;1.00;;;0.57;;
6878;SDS011;3478;51.462;7.338;2023-06-04T19:44:37;3.23;;;0.70;;
6878;SDS011;3478;51.462;7.338;2023-06-04T19:49:38;1.20;;;0.60;;
6878;SDS011;3478;51.462;7.338;2023-06-04T19:54:42;3.00;;;0.67;;
6878;SDS011;3478;51.462;7.338;2023-06-04T19:59:44;1.37;;;0.70;;
6878;SDS011;3478;51.462;7.338;2023-06-04T20:04:46;1.00;;;0.80;;
6878;SDS011;3478;51.462;7.338;2023-06-04T20:09:52;1.93;;;0.90;;
6878;SDS011;3478;51.462;7.338;2023-06-04T20:14:54;0.80;;;0.50;;
6878;SDS011;3478;51.462;7.338;2023-06-04T20:19:56;1.60;;;0.60;;
6878;SDS011;3478;51.462;7.338;2023-06-04T20:24:59;1.50;;;0.60;;
6878;SDS011;3478;51.462;7.338;2023-06-04T20:30:01;1.03;;;0.63;;
6878;SDS011;3478;51.462;7.338;2023-06-04T20:35:03;1.37;;;0.70;;
6878;SDS011;3478;51.462;7.338;2023-06-04T20:40:07;1.10;;;0.60;;
6878;SDS011;3478;51.462;7.338;2023-06-04T20:45:09;1.73;;;0.60;;
6878;SDS011;3478;51.462;7.338;2023-06-04T20:50:11;3.37;;;0.70;;
6878;SDS011;3478;51.462;7.338;2023-06-04T20:55:14;1.00;;;0.70;;
6878;SDS011;3478;51.462;7.338;2023-06-04T21:00:17;1.10;;;0.80;;
6878;SDS011;3478;51.462;7.338;2023-06-04T21:05:19;1.23;;;0.80;;
6878;SDS011;3478;51.462;7.338;2023-06-04T21:10:22;1.77;;;0.80;;
6878;SDS011;3478;51.462;7.338;2023-06-04T21:15:24;1.07;;;0.93;;
6878;SDS011;3478;51.462;7.338;2023-06-04T21:20:25;1.27;;;1.17;;
6878;SDS011;3478;51.462;7.338;2023-06-04T21:25:29;2.90;;;0.80;;
6878;SDS011;3478;51.462;7.338;2023-06-04T21:30:31;2.90;;;0.90;;
6878;SDS011;3478;51.462;7.338;2023-06-04T21:35:32;1.73;;;0.67;;
6878;SDS011;3478;51.462;7.338;2023-06-04T21:40:35;1.20;;;0.70;;
6878;SDS011;3478;51.462;7.338;2023-06-04T21:45:37;0.80;;;0.60;;
6878;SDS011;3478;51.462;7.338;2023-06-04T21:50:39;1.60;;;0.87;;
6878;SDS011;3478;51.462;7.338;2023-06-04T21:55:42;2.00;;;0.73;;
6878;SDS011;3478;51.462;7.338;2023-06-04T22:00:44;1.63;;;1.10;;
6878;SDS011;3478;51.462;7.338;2023-06-04T22:05:46;1.20;;;0.73;;
6878;SDS011;3478;51.462;7.338;2023-06-04T22:10:49;2.10;;;0.87;;
6878;SDS011;3478;51.462;7.338;2023-06-04T22:15:51;2.77;;;1.20;;
6878;SDS011;3478;51.462;7.338;2023-06-04T22:20:53;3.77;;;1.13;;
6878;SDS011;3478;51.462;7.338;2023-06-04T22:25:56;1.20;;;0.90;;
6878;SDS011;3478;51.462;7.338;2023-06-04T22:30:58;1.47;;;1.37;;
6878;SDS011;3478;51.462;7.338;2023-06-04T22:35:59;6.20;;;1.30;;
6878;SDS011;3478;51.462;7.338;2023-06-04T22:41:03;1.97;;;1.80;;
6878;SDS011;3478;51.462;7.338;2023-06-04T22:46:05;1.50;;;1.40;;
6878;SDS011;3478;51.462;7.338;2023-06-04T22:51:07;1.87;;;1.07;;
6878;SDS011;3478;51.462;7.338;2023-06-04T22:56:10;1.60;;;0.90;;
6878;SDS011;3478;51.462;7.338;2023-06-04T23:01:12;1.67;;;1.00;;
6878;SDS011;3478;51.462;7.338;2023-06-04T23:06:15;1.37;;;1.27;;
6878;SDS011;3478;51.462;7.338;2023-06-04T23:11:18;1.30;;;1.20;;
6878;SDS011;3478;51.462;7.338;2023-06-04T23:16:20;2.30;;;1.27;;
6878;SDS011;3478;51.462;7.338;2023-06-04T23:21:22;3.00;;;1.43;;
6878;SDS011;3478;51.462;7.338;2023-06-04T23:26:25;4.43;;;1.47;;
6878;SDS011;3478;51.462;7.338;2023-06-04T23:31:27;2.60;;;1.43;;
6878;SDS011;3478;51.462;7.338;2023-06-04T23:36:29;1.30;;;1.13;;
6878;SDS011;3478;51.462;7.338;2023-06-04T23:41:32;1.60;;;1.33;;
6878;SDS011;3478;51.462;7.338;2023-06-04T23:46:34;7.00;;;1.77;;
6878;SDS011;3478;51.462;7.338;2023-06-04T23:51:36;2.10;;;1.60;;
6878;SDS011;3478;51.462;7.338;2023-06-04T23:56:39;2.27;;;0.97;;
